sensor_id;sensor_type;location;lat;lon;timestamp;P1;durP1;ratioP1;P2;durP2;ratioP2
52180;SDS011;38158;53.338;6.514;2023-02-18T00:00:55;18.15;;;3.30;;
52180;SDS011;38158;53.338;6.514;2023-02-18T00:03:25;14.65;;;2.88;;
52180;SDS011;38158;53.338;6.514;2023-02-18T00:05:52;25.15;;;3.20;;
52180;SDS011;38158;53.338;6.514;2023-02-18T00:08:18;20.30;;;3.03;;
52180;SDS011;38158;53.338;6.514;2023-02-18T00:10:44;14.77;;;2.53;;
52180;SDS011;38158;53.338;6.514;2023-02-18T00:13:10;15.50;;;2.00;;
52180;SDS011;38158;53.338;6.514;2023-02-18T00:15:37;18.35;;;2.65;;
52180;SDS011;38158;53.338;6.514;2023-02-18T00:18:03;20.63;;;3.05;;
52180;SDS011;38158;53.338;6.514;2023-02-18T00:20:29;14.38;;;2.78;;
52180;SDS011;38158;53.338;6.514;2023-02-18T00:22:57;12.70;;;2.50;;
52180;SDS011;38158;53.338;6.514;2023-02-18T00:25:23;18.33;;;2.75;;
52180;SDS011;38158;53.338;6.514;2023-02-18T00:27:50;18.20;;;2.58;;
52180;SDS011;38158;53.338;6.514;2023-02-18T00:30:15;22.90;;;2.88;;
52180;SDS011;38158;53.338;6.514;2023-02-18T00:32:41;23.13;;;2.50;;
52180;SDS011;38158;53.338;6.514;2023-02-18T00:35:07;10.93;;;2.10;;
52180;SDS011;38158;53.338;6.514;2023-02-18T00:37:33;16.27;;;2.15;;
52180;SDS011;38158;53.338;6.514;2023-02-18T00:39:59;16.33;;;2.38;;
52180;SDS011;38158;53.338;6.514;2023-02-18T00:42:24;15.77;;;2.70;;
52180;SDS011;38158;53.338;6.514;2023-02-18T00:44:50;17.88;;;2.35;;
52180;SDS011;38158;53.338;6.514;2023-02-18T00:47:16;21.27;;;2.80;;
52180;SDS011;38158;53.338;6.514;2023-02-18T00:49:42;19.27;;;2.97;;
52180;SDS011;38158;53.338;6.514;2023-02-18T00:52:07;18.90;;;3.00;;
52180;SDS011;38158;53.338;6.514;2023-02-18T00:54:33;16.17;;;2.35;;
52180;SDS011;38158;53.338;6.514;2023-02-18T00:56:59;20.60;;;2.70;;
52180;SDS011;38158;53.338;6.514;2023-02-18T00:59:24;14.73;;;2.10;;
52180;SDS011;38158;53.338;6.514;2023-02-18T01:01:50;16.88;;;2.75;;
52180;SDS011;38158;53.338;6.514;2023-02-18T01:04:16;14.60;;;2.13;;
52180;SDS011;38158;53.338;6.514;2023-02-18T01:06:42;17.65;;;1.90;;
52180;SDS011;38158;53.338;6.514;2023-02-18T01:09:07;18.05;;;2.75;;
52180;SDS011;38158;53.338;6.514;2023-02-18T01:11:34;18.83;;;2.90;;
52180;SDS011;38158;53.338;6.514;2023-02-18T01:14:00;14.63;;;2.10;;
52180;SDS011;38158;53.338;6.514;2023-02-18T01:16:26;19.90;;;3.05;;
52180;SDS011;38158;53.338;6.514;2023-02-18T01:18:51;16.63;;;2.40;;
52180;SDS011;38158;53.338;6.514;2023-02-18T01:21:17;17.27;;;2.60;;
52180;SDS011;38158;53.338;6.514;2023-02-18T01:23:43;14.65;;;2.08;;
52180;SDS011;38158;53.338;6.514;2023-02-18T01:26:09;15.68;;;2.42;;
52180;SDS011;38158;53.338;6.514;2023-02-18T01:28:35;16.10;;;2.67;;
52180;SDS011;38158;53.338;6.514;2023-02-18T01:31:05;17.80;;;2.53;;
52180;SDS011;38158;53.338;6.514;2023-02-18T01:33:32;15.07;;;2.03;;
52180;SDS011;38158;53.338;6.514;2023-02-18T01:35:58;18.08;;;2.47;;
52180;SDS011;38158;53.338;6.514;2023-02-18T01:38:24;15.85;;;3.70;;
52180;SDS011;38158;53.338;6.514;2023-02-18T01:40:50;19.23;;;2.30;;
52180;SDS011;38158;53.338;6.514;2023-02-18T01:43:18;21.10;;;2.65;;
52180;SDS011;38158;53.338;6.514;2023-02-18T01:48:30;19.23;;;2.45;;
52180;SDS011;38158;53.338;6.514;2023-02-18T01:51:10;13.85;;;2.50;;
52180;SDS011;38158;53.338;6.514;2023-02-18T01:56:13;19.48;;;2.97;;
52180;SDS011;38158;53.338;6.514;2023-02-18T01:58:44;24.13;;;2.63;;
52180;SDS011;38158;53.338;6.514;2023-02-18T02:01:10;16.10;;;2.13;;
52180;SDS011;38158;53.338;6.514;2023-02-18T02:03:36;16.92;;;2.92;;
52180;SDS011;38158;53.338;6.514;2023-02-18T02:06:02;18.33;;;3.30;;
52180;SDS011;38158;53.338;6.514;2023-02-18T02:08:36;19.17;;;2.40;;
52180;SDS011;38158;53.338;6.514;2023-02-18T02:13:43;16.55;;;3.15;;
52180;SDS011;38158;53.338;6.514;2023-02-18T02:16:25;20.27;;;3.30;;
52180;SDS011;38158;53.338;6.514;2023-02-18T02:24:50;18.67;;;3.30;;
52180;SDS011;38158;53.338;6.514;2023-02-18T02:27:45;17.55;;;2.67;;
52180;SDS011;38158;53.338;6.514;2023-02-18T02:36:21;17.25;;;3.53;;
52180;SDS011;38158;53.338;6.514;2023-02-18T02:44:42;19.02;;;3.33;;
52180;SDS011;38158;53.338;6.514;2023-02-18T02:47:10;17.48;;;2.90;;
52180;SDS011;38158;53.338;6.514;2023-02-18T02:49:47;19.00;;;4.00;;
52180;SDS011;38158;53.338;6.514;2023-02-18T02:54:47;20.35;;;2.83;;
52180;SDS011;38158;53.338;6.514;2023-02-18T02:59:43;19.05;;;2.92;;
52180;SDS011;38158;53.338;6.514;2023-02-18T03:02:57;14.73;;;3.25;;
52180;SDS011;38158;53.338;6.514;2023-02-18T03:13:08;15.23;;;3.08;;
52180;SDS011;38158;53.338;6.514;2023-02-18T03:18:35;21.35;;;3.10;;
52180;SDS011;38158;53.338;6.514;2023-02-18T03:23:44;15.00;;;3.22;;
52180;SDS011;38158;53.338;6.514;2023-02-18T03:26:19;22.02;;;3.97;;
52180;SDS011;38158;53.338;6.514;2023-02-18T03:28:45;19.48;;;3.60;;
52180;SDS011;38158;53.338;6.514;2023-02-18T03:31:15;23.40;;;3.50;;
52180;SDS011;38158;53.338;6.514;2023-02-18T03:33:47;12.45;;;2.75;;
52180;SDS011;38158;53.338;6.514;2023-02-18T03:36:17;20.30;;;4.30;;
52180;SDS011;38158;53.338;6.514;2023-02-18T03:39:00;15.55;;;2.95;;
52180;SDS011;38158;53.338;6.514;2023-02-18T03:41:29;18.75;;;3.63;;
52180;SDS011;38158;53.338;6.514;2023-02-18T03:44:00;15.45;;;3.47;;
52180;SDS011;38158;53.338;6.514;2023-02-18T03:46:29;13.93;;;3.70;;
52180;SDS011;38158;53.338;6.514;2023-02-18T03:51:21;20.10;;;3.40;;
52180;SDS011;38158;53.338;6.514;2023-02-18T03:53:47;13.43;;;3.33;;
52180;SDS011;38158;53.338;6.514;2023-02-18T03:56:13;16.88;;;3.33;;
52180;SDS011;38158;53.338;6.514;2023-02-18T03:58:39;18.58;;;4.40;;
52180;SDS011;38158;53.338;6.514;2023-02-18T04:01:05;14.38;;;3.90;;
52180;SDS011;38158;53.338;6.514;2023-02-18T04:03:31;20.42;;;4.70;;
52180;SDS011;38158;53.338;6.514;2023-02-18T04:05:57;17.10;;;3.90;;
52180;SDS011;38158;53.338;6.514;2023-02-18T04:08:23;18.38;;;4.63;;
52180;SDS011;38158;53.338;6.514;2023-02-18T04:10:49;12.10;;;3.92;;
52180;SDS011;38158;53.338;6.514;2023-02-18T04:13:15;19.20;;;3.50;;
52180;SDS011;38158;53.338;6.514;2023-02-18T04:15:42;22.15;;;4.03;;
52180;SDS011;38158;53.338;6.514;2023-02-18T04:18:08;17.10;;;4.30;;
52180;SDS011;38158;53.338;6.514;2023-02-18T04:20:34;14.50;;;4.75;;
52180;SDS011;38158;53.338;6.514;2023-02-18T04:23:01;15.95;;;3.80;;
52180;SDS011;38158;53.338;6.514;2023-02-18T04:25:27;18.33;;;4.25;;
52180;SDS011;38158;53.338;6.514;2023-02-18T04:27:53;20.00;;;4.38;;
52180;SDS011;38158;53.338;6.514;2023-02-18T04:30:18;12.45;;;3.60;;
52180;SDS011;38158;53.338;6.514;2023-02-18T04:32:44;13.70;;;3.30;;
52180;SDS011;38158;53.338;6.514;2023-02-18T04:35:10;13.77;;;3.30;;
52180;SDS011;38158;53.338;6.514;2023-02-18T04:37:35;12.00;;;3.50;;
52180;SDS011;38158;53.338;6.514;2023-02-18T04:40:01;15.00;;;3.97;;
52180;SDS011;38158;53.338;6.514;2023-02-18T04:42:27;13.77;;;3.55;;
52180;SDS011;38158;53.338;6.514;2023-02-18T04:44:53;14.43;;;3.58;;
52180;SDS011;38158;53.338;6.514;2023-02-18T04:47:18;19.35;;;3.95;;
52180;SDS011;38158;53.338;6.514;2023-02-18T04:49:44;14.90;;;3.03;;
52180;SDS011;38158;53.338;6.514;2023-02-18T04:52:09;15.75;;;3.67;;
52180;SDS011;38158;53.338;6.514;2023-02-18T04:54:35;15.30;;;4.05;;
52180;SDS011;38158;53.338;6.514;2023-02-18T04:57:01;14.98;;;4.28;;
52180;SDS011;38158;53.338;6.514;2023-02-18T04:59:26;16.75;;;3.65;;
52180;SDS011;38158;53.338;6.514;2023-02-18T05:01:52;19.60;;;4.72;;
52180;SDS011;38158;53.338;6.514;2023-02-18T05:04:18;21.58;;;4.97;;
52180;SDS011;38158;53.338;6.514;2023-02-18T05:06:44;13.77;;;4.30;;
52180;SDS011;38158;53.338;6.514;2023-02-18T05:09:09;15.48;;;4.68;;
52180;SDS011;38158;53.338;6.514;2023-02-18T05:11:36;20.27;;;4.68;;
52180;SDS011;38158;53.338;6.514;2023-02-18T05:14:02;17.02;;;4.53;;
52180;SDS011;38158;53.338;6.514;2023-02-18T05:16:28;15.65;;;5.30;;
52180;SDS011;38158;53.338;6.514;2023-02-18T05:18:53;15.88;;;5.45;;
52180;SDS011;38158;53.338;6.514;2023-02-18T05:21:19;15.75;;;5.85;;
52180;SDS011;38158;53.338;6.514;2023-02-18T05:23:45;18.35;;;6.47;;
52180;SDS011;38158;53.338;6.514;2023-02-18T05:26:10;28.17;;;7.40;;
52180;SDS011;38158;53.338;6.514;2023-02-18T05:28:36;23.85;;;7.80;;
52180;SDS011;38158;53.338;6.514;2023-02-18T05:31:02;25.15;;;8.18;;
52180;SDS011;38158;53.338;6.514;2023-02-18T05:33:28;18.90;;;8.52;;
52180;SDS011;38158;53.338;6.514;2023-02-18T05:35:53;23.08;;;9.88;;
52180;SDS011;38158;53.338;6.514;2023-02-18T05:38:19;22.63;;;10.63;;
52180;SDS011;38158;53.338;6.514;2023-02-18T05:40:45;26.60;;;12.13;;
52180;SDS011;38158;53.338;6.514;2023-02-18T05:43:11;33.20;;;13.37;;
52180;SDS011;38158;53.338;6.514;2023-02-18T05:45:37;31.83;;;12.40;;
52180;SDS011;38158;53.338;6.514;2023-02-18T05:48:03;32.95;;;15.23;;
52180;SDS011;38158;53.338;6.514;2023-02-18T05:50:29;39.38;;;15.15;;
52180;SDS011;38158;53.338;6.514;2023-02-18T05:52:54;43.00;;;17.55;;
52180;SDS011;38158;53.338;6.514;2023-02-18T05:55:20;43.92;;;17.98;;
52180;SDS011;38158;53.338;6.514;2023-02-18T05:57:46;40.72;;;19.08;;
52180;SDS011;38158;53.338;6.514;2023-02-18T06:00:12;42.40;;;20.70;;
52180;SDS011;38158;53.338;6.514;2023-02-18T06:02:38;49.53;;;20.58;;
52180;SDS011;38158;53.338;6.514;2023-02-18T06:05:04;43.17;;;20.90;;
52180;SDS011;38158;53.338;6.514;2023-02-18T06:07:30;44.23;;;21.53;;
52180;SDS011;38158;53.338;6.514;2023-02-18T06:09:56;37.47;;;20.40;;
52180;SDS011;38158;53.338;6.514;2023-02-18T06:12:21;38.65;;;19.17;;
52180;SDS011;38158;53.338;6.514;2023-02-18T06:14:47;39.47;;;19.08;;
52180;SDS011;38158;53.338;6.514;2023-02-18T06:17:13;33.35;;;17.17;;
52180;SDS011;38158;53.338;6.514;2023-02-18T06:19:39;32.97;;;17.02;;
52180;SDS011;38158;53.338;6.514;2023-02-18T06:22:05;32.33;;;17.50;;
52180;SDS011;38158;53.338;6.514;2023-02-18T06:24:31;36.83;;;17.70;;
52180;SDS011;38158;53.338;6.514;2023-02-18T06:26:57;29.67;;;16.30;;
52180;SDS011;38158;53.338;6.514;2023-02-18T06:29:23;27.77;;;13.57;;
52180;SDS011;38158;53.338;6.514;2023-02-18T06:31:49;29.80;;;14.40;;
52180;SDS011;38158;53.338;6.514;2023-02-18T06:34:15;29.73;;;14.90;;
52180;SDS011;38158;53.338;6.514;2023-02-18T06:36:41;26.23;;;12.77;;
52180;SDS011;38158;53.338;6.514;2023-02-18T06:39:06;22.15;;;12.60;;
52180;SDS011;38158;53.338;6.514;2023-02-18T06:41:33;26.05;;;12.50;;
52180;SDS011;38158;53.338;6.514;2023-02-18T06:43:59;19.20;;;10.35;;
52180;SDS011;38158;53.338;6.514;2023-02-18T06:46:24;17.58;;;9.98;;
52180;SDS011;38158;53.338;6.514;2023-02-18T06:48:50;23.52;;;11.25;;
52180;SDS011;38158;53.338;6.514;2023-02-18T06:51:16;23.10;;;10.98;;
52180;SDS011;38158;53.338;6.514;2023-02-18T06:53:43;24.15;;;11.23;;
52180;SDS011;38158;53.338;6.514;2023-02-18T06:56:10;23.30;;;10.10;;
52180;SDS011;38158;53.338;6.514;2023-02-18T06:58:36;23.50;;;10.48;;
52180;SDS011;38158;53.338;6.514;2023-02-18T07:01:02;24.40;;;10.80;;
52180;SDS011;38158;53.338;6.514;2023-02-18T07:03:28;22.23;;;11.25;;
52180;SDS011;38158;53.338;6.514;2023-02-18T07:05:54;21.40;;;10.63;;
52180;SDS011;38158;53.338;6.514;2023-02-18T07:08:19;25.35;;;11.63;;
52180;SDS011;38158;53.338;6.514;2023-02-18T07:10:45;27.48;;;13.57;;
52180;SDS011;38158;53.338;6.514;2023-02-18T07:13:12;25.67;;;12.98;;
52180;SDS011;38158;53.338;6.514;2023-02-18T07:15:38;33.38;;;15.02;;
52180;SDS011;38158;53.338;6.514;2023-02-18T07:18:03;35.72;;;15.50;;
52180;SDS011;38158;53.338;6.514;2023-02-18T07:20:29;30.15;;;16.23;;
52180;SDS011;38158;53.338;6.514;2023-02-18T07:22:55;33.25;;;15.57;;
52180;SDS011;38158;53.338;6.514;2023-02-18T07:25:20;32.47;;;14.77;;
52180;SDS011;38158;53.338;6.514;2023-02-18T07:27:46;34.13;;;16.58;;
52180;SDS011;38158;53.338;6.514;2023-02-18T07:30:12;36.38;;;15.32;;
52180;SDS011;38158;53.338;6.514;2023-02-18T07:32:38;26.10;;;14.23;;
52180;SDS011;38158;53.338;6.514;2023-02-18T07:35:04;24.00;;;12.57;;
52180;SDS011;38158;53.338;6.514;2023-02-18T07:37:30;28.33;;;13.20;;
52180;SDS011;38158;53.338;6.514;2023-02-18T07:39:57;24.17;;;11.40;;
52180;SDS011;38158;53.338;6.514;2023-02-18T07:42:23;22.92;;;12.35;;
52180;SDS011;38158;53.338;6.514;2023-02-18T07:44:48;26.40;;;11.10;;
52180;SDS011;38158;53.338;6.514;2023-02-18T07:47:15;20.35;;;10.60;;
52180;SDS011;38158;53.338;6.514;2023-02-18T07:49:43;19.05;;;11.50;;
52180;SDS011;38158;53.338;6.514;2023-02-18T07:52:10;20.60;;;9.90;;
52180;SDS011;38158;53.338;6.514;2023-02-18T07:54:36;23.40;;;10.73;;
52180;SDS011;38158;53.338;6.514;2023-02-18T07:57:02;24.55;;;10.07;;
52180;SDS011;38158;53.338;6.514;2023-02-18T07:59:27;20.58;;;10.25;;
52180;SDS011;38158;53.338;6.514;2023-02-18T08:01:53;21.17;;;8.45;;
52180;SDS011;38158;53.338;6.514;2023-02-18T08:04:19;21.90;;;10.07;;
52180;SDS011;38158;53.338;6.514;2023-02-18T08:06:45;16.95;;;7.95;;
52180;SDS011;38158;53.338;6.514;2023-02-18T08:09:13;13.73;;;7.43;;
52180;SDS011;38158;53.338;6.514;2023-02-18T08:14:06;18.83;;;8.18;;
52180;SDS011;38158;53.338;6.514;2023-02-18T08:16:31;17.25;;;9.05;;
52180;SDS011;38158;53.338;6.514;2023-02-18T08:18:57;16.23;;;7.07;;
52180;SDS011;38158;53.338;6.514;2023-02-18T08:21:24;16.58;;;7.20;;
52180;SDS011;38158;53.338;6.514;2023-02-18T08:23:50;15.57;;;7.32;;
52180;SDS011;38158;53.338;6.514;2023-02-18T08:26:16;15.90;;;6.70;;
52180;SDS011;38158;53.338;6.514;2023-02-18T08:28:42;17.20;;;6.18;;
52180;SDS011;38158;53.338;6.514;2023-02-18T08:31:28;20.83;;;6.30;;
52180;SDS011;38158;53.338;6.514;2023-02-18T08:33:56;19.33;;;6.55;;
52180;SDS011;38158;53.338;6.514;2023-02-18T08:36:24;15.70;;;5.75;;
52180;SDS011;38158;53.338;6.514;2023-02-18T08:38:51;17.77;;;5.40;;
52180;SDS011;38158;53.338;6.514;2023-02-18T08:41:16;15.43;;;4.43;;
52180;SDS011;38158;53.338;6.514;2023-02-18T08:43:46;20.33;;;5.90;;
52180;SDS011;38158;53.338;6.514;2023-02-18T08:46:12;11.70;;;3.50;;
52180;SDS011;38158;53.338;6.514;2023-02-18T08:48:38;13.25;;;4.55;;
52180;SDS011;38158;53.338;6.514;2023-02-18T08:51:37;18.00;;;4.53;;
52180;SDS011;38158;53.338;6.514;2023-02-18T08:53:56;16.48;;;4.72;;
52180;SDS011;38158;53.338;6.514;2023-02-18T08:56:22;12.85;;;3.00;;
52180;SDS011;38158;53.338;6.514;2023-02-18T08:58:48;9.73;;;2.75;;
52180;SDS011;38158;53.338;6.514;2023-02-18T09:01:14;13.32;;;2.40;;
52180;SDS011;38158;53.338;6.514;2023-02-18T09:03:39;13.95;;;2.50;;
52180;SDS011;38158;53.338;6.514;2023-02-18T09:06:05;14.80;;;2.95;;
52180;SDS011;38158;53.338;6.514;2023-02-18T09:08:32;10.88;;;2.53;;
52180;SDS011;38158;53.338;6.514;2023-02-18T09:10:58;9.05;;;2.00;;
52180;SDS011;38158;53.338;6.514;2023-02-18T09:13:25;10.43;;;2.08;;
52180;SDS011;38158;53.338;6.514;2023-02-18T09:16:14;8.57;;;1.90;;
52180;SDS011;38158;53.338;6.514;2023-02-18T09:18:39;17.97;;;2.67;;
52180;SDS011;38158;53.338;6.514;2023-02-18T09:21:06;9.02;;;1.80;;
52180;SDS011;38158;53.338;6.514;2023-02-18T09:25:59;10.07;;;2.17;;
52180;SDS011;38158;53.338;6.514;2023-02-18T09:28:25;18.13;;;2.72;;
52180;SDS011;38158;53.338;6.514;2023-02-18T09:30:51;14.40;;;2.30;;
52180;SDS011;38158;53.338;6.514;2023-02-18T09:33:17;12.98;;;2.17;;
52180;SDS011;38158;53.338;6.514;2023-02-18T09:35:44;12.80;;;2.40;;
52180;SDS011;38158;53.338;6.514;2023-02-18T09:38:11;15.57;;;2.53;;
52180;SDS011;38158;53.338;6.514;2023-02-18T09:40:39;19.95;;;2.97;;
52180;SDS011;38158;53.338;6.514;2023-02-18T09:45:59;13.98;;;2.55;;
52180;SDS011;38158;53.338;6.514;2023-02-18T09:48:27;9.13;;;1.55;;
52180;SDS011;38158;53.338;6.514;2023-02-18T09:50:56;11.70;;;2.08;;
52180;SDS011;38158;53.338;6.514;2023-02-18T09:53:23;14.80;;;3.57;;
52180;SDS011;38158;53.338;6.514;2023-02-18T09:55:49;13.32;;;2.10;;
52180;SDS011;38158;53.338;6.514;2023-02-18T09:58:19;11.15;;;2.22;;
52180;SDS011;38158;53.338;6.514;2023-02-18T10:03:26;12.68;;;2.17;;
52180;SDS011;38158;53.338;6.514;2023-02-18T10:08:21;11.13;;;2.22;;
52180;SDS011;38158;53.338;6.514;2023-02-18T10:10:53;14.48;;;2.65;;
52180;SDS011;38158;53.338;6.514;2023-02-18T10:13:20;14.95;;;2.17;;
52180;SDS011;38158;53.338;6.514;2023-02-18T10:15:48;13.45;;;1.92;;
52180;SDS011;38158;53.338;6.514;2023-02-18T10:20:56;11.52;;;2.13;;
52180;SDS011;38158;53.338;6.514;2023-02-18T10:23:30;6.75;;;1.25;;
52180;SDS011;38158;53.338;6.514;2023-02-18T10:26:00;12.50;;;2.25;;
52180;SDS011;38158;53.338;6.514;2023-02-18T10:28:30;15.80;;;2.40;;
52180;SDS011;38158;53.338;6.514;2023-02-18T10:30:58;14.80;;;3.27;;
52180;SDS011;38158;53.338;6.514;2023-02-18T10:41:45;11.00;;;1.98;;
52180;SDS011;38158;53.338;6.514;2023-02-18T10:47:02;14.85;;;2.70;;
52180;SDS011;38158;53.338;6.514;2023-02-18T10:52:15;22.77;;;4.03;;
52180;SDS011;38158;53.338;6.514;2023-02-18T10:57:28;14.13;;;2.53;;
52180;SDS011;38158;53.338;6.514;2023-02-18T11:00:00;24.48;;;3.78;;
52180;SDS011;38158;53.338;6.514;2023-02-18T11:02:39;16.05;;;3.28;;
52180;SDS011;38158;53.338;6.514;2023-02-18T11:05:15;20.90;;;5.47;;
52180;SDS011;38158;53.338;6.514;2023-02-18T11:07:50;20.95;;;2.78;;
52180;SDS011;38158;53.338;6.514;2023-02-18T11:10:25;14.98;;;2.83;;
52180;SDS011;38158;53.338;6.514;2023-02-18T11:13:01;21.08;;;3.13;;
52180;SDS011;38158;53.338;6.514;2023-02-18T11:15:31;23.67;;;2.60;;
52180;SDS011;38158;53.338;6.514;2023-02-18T11:17:57;12.27;;;1.80;;
52180;SDS011;38158;53.338;6.514;2023-02-18T11:20:59;25.77;;;3.38;;
52180;SDS011;38158;53.338;6.514;2023-02-18T11:23:26;15.18;;;2.65;;
52180;SDS011;38158;53.338;6.514;2023-02-18T11:26:06;17.88;;;3.28;;
52180;SDS011;38158;53.338;6.514;2023-02-18T11:31:07;15.13;;;2.35;;
52180;SDS011;38158;53.338;6.514;2023-02-18T11:36:44;18.88;;;2.80;;
52180;SDS011;38158;53.338;6.514;2023-02-18T11:39:16;16.20;;;2.65;;
52180;SDS011;38158;53.338;6.514;2023-02-18T11:41:52;12.93;;;2.33;;
52180;SDS011;38158;53.338;6.514;2023-02-18T11:44:33;19.23;;;3.10;;
52180;SDS011;38158;53.338;6.514;2023-02-18T11:47:01;16.73;;;3.38;;
52180;SDS011;38158;53.338;6.514;2023-02-18T11:49:29;19.85;;;2.90;;
52180;SDS011;38158;53.338;6.514;2023-02-18T11:57:25;16.35;;;3.13;;
52180;SDS011;38158;53.338;6.514;2023-02-18T11:59:52;17.47;;;2.83;;
52180;SDS011;38158;53.338;6.514;2023-02-18T12:05:01;16.08;;;2.63;;
52180;SDS011;38158;53.338;6.514;2023-02-18T12:07:49;15.35;;;3.17;;
52180;SDS011;38158;53.338;6.514;2023-02-18T12:10:38;11.13;;;2.33;;
52180;SDS011;38158;53.338;6.514;2023-02-18T12:15:39;8.77;;;1.90;;
52180;SDS011;38158;53.338;6.514;2023-02-18T12:23:45;20.92;;;2.88;;
52180;SDS011;38158;53.338;6.514;2023-02-18T12:26:43;14.50;;;2.58;;
52180;SDS011;38158;53.338;6.514;2023-02-18T12:35:36;17.48;;;2.50;;
52180;SDS011;38158;53.338;6.514;2023-02-18T13:04:26;15.95;;;2.47;;
52180;SDS011;38158;53.338;6.514;2023-02-18T13:15:00;12.52;;;2.70;;
52180;SDS011;38158;53.338;6.514;2023-02-18T13:17:41;15.88;;;3.22;;
52180;SDS011;38158;53.338;6.514;2023-02-18T13:20:22;15.73;;;2.90;;
52180;SDS011;38158;53.338;6.514;2023-02-18T13:23:00;14.07;;;2.15;;
52180;SDS011;38158;53.338;6.514;2023-02-18T13:25:28;16.05;;;1.90;;
52180;SDS011;38158;53.338;6.514;2023-02-18T13:28:06;19.63;;;2.45;;
52180;SDS011;38158;53.338;6.514;2023-02-18T13:34:16;13.27;;;2.03;;
52180;SDS011;38158;53.338;6.514;2023-02-18T13:39:25;17.48;;;3.05;;
52180;SDS011;38158;53.338;6.514;2023-02-18T13:41:51;14.43;;;2.50;;
52180;SDS011;38158;53.338;6.514;2023-02-18T13:47:42;17.95;;;2.70;;
52180;SDS011;38158;53.338;6.514;2023-02-18T13:52:56;15.07;;;2.65;;
52180;SDS011;38158;53.338;6.514;2023-02-18T13:58:15;15.13;;;2.38;;
52180;SDS011;38158;53.338;6.514;2023-02-18T14:00:55;19.85;;;2.50;;
52180;SDS011;38158;53.338;6.514;2023-02-18T14:06:00;18.23;;;2.78;;
52180;SDS011;38158;53.338;6.514;2023-02-18T14:08:37;11.37;;;2.13;;
52180;SDS011;38158;53.338;6.514;2023-02-18T14:13:43;17.85;;;3.13;;
52180;SDS011;38158;53.338;6.514;2023-02-18T14:16:13;16.48;;;2.88;;
52180;SDS011;38158;53.338;6.514;2023-02-18T14:33:36;19.52;;;2.85;;
52180;SDS011;38158;53.338;6.514;2023-02-18T14:49:53;19.80;;;2.85;;
52180;SDS011;38158;53.338;6.514;2023-02-18T14:52:28;19.75;;;3.60;;
52180;SDS011;38158;53.338;6.514;2023-02-18T14:55:00;15.68;;;2.58;;
52180;SDS011;38158;53.338;6.514;2023-02-18T14:57:40;23.52;;;3.47;;
52180;SDS011;38158;53.338;6.514;2023-02-18T15:00:14;23.50;;;3.17;;
52180;SDS011;38158;53.338;6.514;2023-02-18T15:02:40;24.77;;;3.13;;
52180;SDS011;38158;53.338;6.514;2023-02-18T15:05:19;17.27;;;2.63;;
52180;SDS011;38158;53.338;6.514;2023-02-18T15:07:57;24.02;;;5.22;;
52180;SDS011;38158;53.338;6.514;2023-02-18T15:10:32;20.23;;;5.63;;
52180;SDS011;38158;53.338;6.514;2023-02-18T15:13:01;24.48;;;4.20;;
52180;SDS011;38158;53.338;6.514;2023-02-18T15:15:28;23.10;;;4.53;;
52180;SDS011;38158;53.338;6.514;2023-02-18T15:17:56;23.92;;;4.55;;
52180;SDS011;38158;53.338;6.514;2023-02-18T15:20:22;23.40;;;4.70;;
52180;SDS011;38158;53.338;6.514;2023-02-18T15:22:48;18.63;;;2.92;;
52180;SDS011;38158;53.338;6.514;2023-02-18T15:25:13;25.77;;;3.45;;
52180;SDS011;38158;53.338;6.514;2023-02-18T15:27:41;21.37;;;2.90;;
52180;SDS011;38158;53.338;6.514;2023-02-18T15:32:35;19.35;;;3.35;;
52180;SDS011;38158;53.338;6.514;2023-02-18T15:35:02;23.30;;;3.67;;
52180;SDS011;38158;53.338;6.514;2023-02-18T15:37:45;19.00;;;2.75;;
52180;SDS011;38158;53.338;6.514;2023-02-18T15:40:16;15.73;;;2.63;;
52180;SDS011;38158;53.338;6.514;2023-02-18T15:42:44;20.40;;;4.00;;
52180;SDS011;38158;53.338;6.514;2023-02-18T15:45:23;18.77;;;3.05;;
52180;SDS011;38158;53.338;6.514;2023-02-18T15:47:54;16.70;;;2.92;;
52180;SDS011;38158;53.338;6.514;2023-02-18T15:52:49;17.40;;;3.42;;
52180;SDS011;38158;53.338;6.514;2023-02-18T15:55:37;18.63;;;3.80;;
52180;SDS011;38158;53.338;6.514;2023-02-18T16:00:59;21.88;;;3.22;;
52180;SDS011;38158;53.338;6.514;2023-02-18T16:03:30;11.73;;;2.40;;
52180;SDS011;38158;53.338;6.514;2023-02-18T16:06:18;17.65;;;2.40;;
52180;SDS011;38158;53.338;6.514;2023-02-18T16:08:54;18.95;;;2.95;;
52180;SDS011;38158;53.338;6.514;2023-02-18T16:11:23;22.33;;;2.80;;
52180;SDS011;38158;53.338;6.514;2023-02-18T16:13:52;22.27;;;3.42;;
52180;SDS011;38158;53.338;6.514;2023-02-18T16:16:22;19.15;;;3.38;;
52180;SDS011;38158;53.338;6.514;2023-02-18T16:18:52;26.85;;;3.88;;
52180;SDS011;38158;53.338;6.514;2023-02-18T16:26:40;31.70;;;4.45;;
52180;SDS011;38158;53.338;6.514;2023-02-18T16:29:12;19.85;;;2.80;;
52180;SDS011;38158;53.338;6.514;2023-02-18T16:31:40;23.45;;;2.90;;
52180;SDS011;38158;53.338;6.514;2023-02-18T16:34:06;16.95;;;3.20;;
52180;SDS011;38158;53.338;6.514;2023-02-18T16:36:32;16.17;;;2.35;;
52180;SDS011;38158;53.338;6.514;2023-02-18T16:38:58;19.25;;;3.38;;
52180;SDS011;38158;53.338;6.514;2023-02-18T16:41:26;19.52;;;2.67;;
52180;SDS011;38158;53.338;6.514;2023-02-18T16:43:52;16.58;;;1.90;;
52180;SDS011;38158;53.338;6.514;2023-02-18T16:46:20;29.73;;;3.33;;
52180;SDS011;38158;53.338;6.514;2023-02-18T16:48:48;21.92;;;3.55;;
52180;SDS011;38158;53.338;6.514;2023-02-18T16:51:30;25.85;;;4.60;;
52180;SDS011;38158;53.338;6.514;2023-02-18T16:53:58;23.42;;;3.45;;
52180;SDS011;38158;53.338;6.514;2023-02-18T16:56:25;28.45;;;4.10;;
52180;SDS011;38158;53.338;6.514;2023-02-18T16:58:56;16.13;;;3.00;;
52180;SDS011;38158;53.338;6.514;2023-02-18T17:01:29;19.35;;;2.45;;
52180;SDS011;38158;53.338;6.514;2023-02-18T17:03:57;21.20;;;3.20;;
52180;SDS011;38158;53.338;6.514;2023-02-18T17:06:25;20.75;;;3.00;;
52180;SDS011;38158;53.338;6.514;2023-02-18T17:08:52;19.23;;;2.85;;
52180;SDS011;38158;53.338;6.514;2023-02-18T17:11:24;22.85;;;2.90;;
52180;SDS011;38158;53.338;6.514;2023-02-18T17:13:54;23.40;;;2.60;;
52180;SDS011;38158;53.338;6.514;2023-02-18T17:16:24;11.48;;;1.80;;
52180;SDS011;38158;53.338;6.514;2023-02-18T17:18:51;19.80;;;3.30;;
52180;SDS011;38158;53.338;6.514;2023-02-18T17:21:18;15.88;;;2.75;;
52180;SDS011;38158;53.338;6.514;2023-02-18T17:23:45;20.77;;;3.00;;
52180;SDS011;38158;53.338;6.514;2023-02-18T17:26:14;22.17;;;3.47;;
52180;SDS011;38158;53.338;6.514;2023-02-18T17:28:55;20.58;;;2.80;;
52180;SDS011;38158;53.338;6.514;2023-02-18T17:31:25;23.40;;;3.25;;
52180;SDS011;38158;53.338;6.514;2023-02-18T17:33:53;26.67;;;3.83;;
52180;SDS011;38158;53.338;6.514;2023-02-18T17:36:22;25.25;;;3.15;;
52180;SDS011;38158;53.338;6.514;2023-02-18T17:38:48;18.30;;;1.95;;
52180;SDS011;38158;53.338;6.514;2023-02-18T17:41:14;17.80;;;2.60;;
52180;SDS011;38158;53.338;6.514;2023-02-18T17:43:40;21.65;;;3.55;;
52180;SDS011;38158;53.338;6.514;2023-02-18T17:46:10;20.88;;;3.00;;
52180;SDS011;38158;53.338;6.514;2023-02-18T17:48:38;13.10;;;2.30;;
52180;SDS011;38158;53.338;6.514;2023-02-18T17:51:04;22.50;;;3.13;;
52180;SDS011;38158;53.338;6.514;2023-02-18T17:53:31;19.63;;;2.97;;
52180;SDS011;38158;53.338;6.514;2023-02-18T17:55:58;27.65;;;3.45;;
52180;SDS011;38158;53.338;6.514;2023-02-18T17:58:24;19.65;;;2.78;;
52180;SDS011;38158;53.338;6.514;2023-02-18T18:00:51;20.55;;;2.83;;
52180;SDS011;38158;53.338;6.514;2023-02-18T18:03:18;16.38;;;2.63;;
52180;SDS011;38158;53.338;6.514;2023-02-18T18:05:45;39.13;;;4.07;;